createdAt,value
2023-04-19T00:00:08.198Z,13.47
2023-04-19T00:02:36.152Z,10.77
2023-04-19T00:05:03.325Z,11.10
2023-04-19T00:07:30.327Z,7.70
2023-04-19T00:09:57.212Z,9.23
2023-04-19T00:12:24.166Z,9.17
2023-04-19T00:14:51.044Z,10.33
2023-04-19T00:17:18.096Z,12.67
2023-04-19T00:19:45.000Z,7.90
2023-04-19T00:22:12.212Z,10.27
2023-04-19T00:24:39.063Z,9.13
2023-04-19T00:27:05.921Z,9.07
2023-04-19T00:29:32.883Z,9.63
2023-04-19T00:31:59.776Z,12.40
2023-04-19T00:34:26.664Z,17.43
2023-04-19T00:36:56.834Z,9.83
2023-04-19T00:39:24.146Z,8.50
2023-04-19T00:41:51.014Z,9.07
2023-04-19T00:44:19.010Z,9.67
2023-04-19T00:46:46.011Z,13.53
2023-04-19T00:49:13.113Z,10.70
2023-04-19T00:51:40.059Z,8.50
2023-04-19T00:54:08.180Z,9.27
2023-04-19T00:56:35.797Z,13.53
2023-04-19T00:59:02.944Z,10.67
2023-04-19T01:01:31.636Z,8.63
2023-04-19T01:03:58.921Z,7.70
2023-04-19T01:06:28.118Z,12.03
2023-04-19T01:08:54.983Z,7.50
2023-04-19T01:11:26.266Z,7.50
2023-04-19T01:13:53.170Z,10.17
2023-04-19T01:16:20.149Z,13.23
2023-04-19T01:18:47.173Z,12.63
2023-04-19T01:21:14.106Z,15.70
2023-04-19T01:23:41.343Z,8.37
2023-04-19T01:26:08.282Z,13.37
2023-04-19T01:28:35.200Z,9.03
2023-04-19T01:31:02.222Z,8.03
2023-04-19T01:33:29.190Z,6.23
2023-04-19T01:35:56.129Z,11.07
2023-04-19T01:38:23.100Z,10.00
2023-04-19T01:40:50.003Z,7.97
2023-04-19T01:43:18.569Z,13.73
2023-04-19T01:45:45.979Z,8.00
2023-04-19T01:48:12.909Z,10.30
2023-04-19T01:50:39.827Z,7.90
2023-04-19T01:53:06.723Z,11.47
2023-04-19T01:55:33.698Z,9.43
2023-04-19T01:58:00.667Z,8.80
2023-04-19T02:00:28.792Z,8.80
2023-04-19T02:02:55.899Z,6.70
2023-04-19T02:05:22.999Z,14.57
2023-04-19T02:07:49.914Z,4.90
2023-04-19T02:10:16.953Z,6.70
2023-04-19T02:12:43.939Z,7.67
2023-04-19T02:15:11.056Z,10.67
2023-04-19T02:17:38.908Z,7.50
2023-04-19T02:20:08.484Z,8.73
2023-04-19T02:22:35.436Z,6.93
2023-04-19T02:25:02.426Z,7.33
2023-04-19T02:27:31.176Z,9.03
2023-04-19T02:29:58.113Z,7.70
2023-04-19T02:32:25.157Z,7.60
2023-04-19T02:34:52.068Z,11.27
2023-04-19T02:37:18.974Z,7.70
2023-04-19T02:39:46.304Z,5.50
2023-04-19T02:42:13.320Z,10.07
2023-04-19T02:44:40.263Z,5.80
2023-04-19T02:47:08.091Z,6.20
2023-04-19T02:49:37.014Z,14.53
2023-04-19T02:52:04.675Z,8.37
2023-04-19T02:54:33.842Z,9.33
2023-04-19T02:57:01.138Z,5.23
2023-04-19T02:59:28.258Z,9.03
2023-04-19T03:01:57.964Z,5.67
2023-04-19T03:04:25.723Z,7.57
2023-04-19T03:06:53.039Z,7.30
2023-04-19T03:09:20.347Z,8.33
2023-04-19T03:11:47.214Z,5.13
2023-04-19T03:14:14.359Z,6.10
2023-04-19T03:16:41.694Z,13.33
2023-04-19T03:19:09.398Z,5.57
2023-04-19T03:21:42.809Z,9.20
2023-04-19T03:24:09.753Z,8.07
2023-04-19T03:26:40.471Z,6.50
2023-04-19T03:29:07.806Z,6.83
2023-04-19T03:31:39.410Z,4.60
2023-04-19T03:34:08.242Z,9.80
2023-04-19T03:36:40.826Z,5.87
2023-04-19T03:39:08.300Z,5.93
2023-04-19T03:41:37.026Z,10.17
2023-04-19T03:44:24.244Z,5.60
2023-04-19T03:46:51.202Z,8.63
2023-04-19T03:49:22.820Z,4.40
2023-04-19T03:52:00.966Z,3.13
2023-04-19T03:54:28.216Z,4.57
2023-04-19T03:56:55.219Z,5.13
2023-04-19T03:59:22.357Z,5.90
2023-04-19T04:01:52.420Z,4.07
2023-04-19T04:04:19.703Z,5.73
2023-04-19T04:06:46.919Z,9.00
2023-04-19T04:09:16.719Z,6.63
2023-04-19T04:11:44.303Z,5.50
2023-04-19T04:14:11.698Z,5.30
2023-04-19T04:16:39.365Z,5.00
2023-04-19T04:19:07.446Z,5.43
2023-04-19T04:21:37.307Z,6.70
2023-04-19T04:24:07.810Z,7.23
2023-04-19T04:26:44.126Z,5.83
2023-04-19T04:29:23.328Z,5.23
2023-04-19T04:31:52.798Z,5.47
2023-04-19T04:34:24.587Z,5.07
2023-04-19T04:36:57.524Z,5.97
2023-04-19T04:39:25.021Z,5.80
2023-04-19T04:41:53.235Z,6.47
2023-04-19T04:44:22.664Z,8.87
2023-04-19T04:46:49.816Z,9.73
2023-04-19T04:49:22.640Z,6.80
2023-04-19T04:51:49.570Z,7.40
2023-04-19T04:54:17.413Z,8.13
2023-04-19T04:56:45.440Z,11.73
2023-04-19T04:59:12.516Z,7.83
2023-04-19T05:01:43.481Z,4.67
2023-04-19T05:04:10.761Z,14.70
2023-04-19T05:06:40.763Z,7.77
2023-04-19T05:09:09.483Z,6.60
2023-04-19T05:11:36.751Z,6.17
2023-04-19T05:14:04.498Z,5.37
2023-04-19T05:16:33.658Z,9.80
2023-04-19T05:19:01.069Z,5.73
2023-04-19T05:21:33.598Z,13.30
2023-04-19T05:24:02.997Z,8.20
2023-04-19T05:26:30.322Z,5.57
2023-04-19T05:28:57.234Z,6.93
2023-04-19T05:31:59.356Z,4.23
2023-04-19T05:34:30.485Z,5.37
2023-04-19T05:36:58.799Z,4.03
2023-04-19T05:39:26.404Z,6.40
2023-04-19T05:41:53.316Z,5.43
2023-04-19T05:44:20.323Z,5.43
2023-04-19T05:46:47.291Z,5.03
2023-04-19T05:49:19.250Z,10.10
2023-04-19T05:52:02.961Z,7.00
2023-04-19T05:54:36.087Z,5.10
2023-04-19T05:57:04.209Z,8.67
2023-04-19T05:59:31.288Z,5.07
2023-04-19T06:01:58.396Z,9.30
2023-04-19T06:04:25.703Z,12.50
2023-04-19T06:06:52.833Z,6.10
2023-04-19T06:09:19.817Z,4.97
2023-04-19T06:11:50.667Z,7.50
2023-04-19T06:14:18.448Z,5.60
2023-04-19T06:16:45.775Z,5.93
2023-04-19T06:19:13.484Z,5.40
2023-04-19T06:21:40.569Z,7.60
2023-04-19T06:24:07.944Z,6.97
2023-04-19T06:26:35.004Z,10.77
2023-04-19T06:29:02.019Z,6.40
2023-04-19T06:31:29.026Z,15.20
2023-04-19T06:33:56.034Z,4.53
2023-04-19T06:36:22.964Z,7.40
2023-04-19T06:38:50.316Z,11.60
2023-04-19T06:41:17.757Z,7.93
2023-04-19T06:43:44.926Z,11.87
2023-04-19T06:46:14.080Z,9.03
2023-04-19T06:48:41.819Z,12.23
2023-04-19T06:51:09.215Z,8.70
2023-04-19T06:53:36.434Z,8.23
2023-04-19T06:56:04.696Z,5.90
2023-04-19T06:58:34.541Z,7.17
2023-04-19T07:01:04.371Z,7.07
2023-04-19T07:03:31.607Z,8.40
2023-04-19T07:05:58.791Z,7.20
2023-04-19T07:08:35.049Z,7.90
2023-04-19T07:11:05.948Z,5.27
2023-04-19T07:13:32.846Z,10.47
2023-04-19T07:15:59.810Z,13.40
2023-04-19T07:18:26.894Z,10.00
2023-04-19T07:20:53.784Z,9.47
2023-04-19T07:23:20.670Z,6.53
2023-04-19T07:25:47.597Z,11.37
2023-04-19T07:28:15.900Z,9.97
2023-04-19T07:30:45.984Z,4.93
2023-04-19T07:33:13.024Z,9.20
2023-04-19T07:35:40.345Z,6.90
2023-04-19T07:38:07.362Z,7.73
2023-04-19T07:40:34.262Z,6.33
2023-04-19T07:43:01.147Z,9.37
2023-04-19T07:45:28.037Z,7.10
2023-04-19T07:47:54.945Z,8.97
2023-04-19T07:50:23.244Z,13.00
2023-04-19T07:52:50.226Z,11.40
2023-04-19T07:55:17.144Z,5.77
2023-04-19T07:57:48.107Z,11.13
2023-04-19T08:00:16.376Z,5.67
2023-04-19T08:02:47.743Z,6.93
2023-04-19T08:05:20.042Z,11.03
2023-04-19T08:07:47.159Z,8.20
2023-04-19T08:10:14.475Z,6.97
2023-04-19T08:12:50.678Z,6.23
2023-04-19T08:16:14.955Z,12.67
2023-04-19T08:18:15.380Z,10.47
2023-04-19T08:20:46.388Z,10.80
2023-04-19T08:23:21.519Z,10.67
2023-04-19T08:25:51.264Z,9.43
2023-04-19T08:28:19.023Z,13.33
2023-04-19T08:30:45.984Z,6.43
2023-04-19T08:33:12.901Z,10.30
2023-04-19T08:35:42.797Z,18.33
2023-04-19T08:38:09.981Z,9.33
2023-04-19T08:40:42.910Z,6.93
2023-04-19T08:43:09.868Z,12.10
2023-04-19T08:45:37.262Z,11.37
2023-04-19T08:48:06.356Z,9.90
2023-04-19T08:50:42.594Z,17.23
2023-04-19T08:53:24.614Z,7.20
2023-04-19T08:56:12.694Z,12.00
2023-04-19T08:59:03.946Z,8.23
2023-04-19T09:01:35.986Z,9.80
2023-04-19T09:04:26.212Z,10.60
2023-04-19T09:06:55.449Z,11.53
2023-04-19T09:11:58.175Z,10.03
2023-04-19T09:14:27.286Z,10.20
2023-04-19T09:16:54.295Z,8.00
2023-04-19T09:19:25.145Z,10.50
2023-04-19T09:21:54.541Z,14.23
2023-04-19T09:25:13.911Z,10.50
2023-04-19T09:27:29.280Z,12.40
2023-04-19T09:29:58.679Z,12.60
2023-04-19T09:32:27.032Z,16.30
2023-04-19T09:34:59.837Z,13.30
2023-04-19T09:39:57.053Z,10.43
2023-04-19T09:42:47.300Z,15.43
2023-04-19T09:47:41.120Z,15.30
2023-04-19T09:50:22.038Z,15.60
2023-04-19T09:52:52.866Z,9.33
2023-04-19T09:57:49.923Z,19.80
2023-04-19T10:00:17.033Z,14.70
2023-04-19T10:02:48.717Z,9.20
2023-04-19T10:05:21.311Z,7.43
2023-04-19T10:07:50.345Z,16.00
2023-04-19T10:10:20.784Z,11.30
2023-04-19T10:15:24.113Z,9.87
2023-04-19T10:17:51.645Z,10.93
2023-04-19T10:20:30.234Z,11.87
2023-04-19T10:22:57.497Z,13.57
2023-04-19T10:25:30.991Z,12.50
2023-04-19T10:27:58.573Z,11.23
2023-04-19T10:30:28.753Z,8.83
2023-04-19T10:33:02.863Z,11.03
2023-04-19T10:35:38.199Z,13.40
2023-04-19T10:38:07.838Z,10.70
2023-04-19T10:40:54.977Z,10.60
2023-04-19T10:43:29.262Z,12.20
2023-04-19T10:46:02.086Z,12.03
2023-04-19T10:48:33.418Z,13.77
2023-04-19T10:51:05.211Z,8.37
2023-04-19T10:53:45.400Z,24.13
2023-04-19T10:56:12.967Z,16.33
2023-04-19T10:59:01.896Z,13.80
2023-04-19T11:01:50.687Z,25.40
2023-04-19T11:04:23.257Z,15.60
2023-04-19T11:06:53.318Z,25.00
2023-04-19T11:09:35.409Z,11.73
2023-04-19T11:12:08.314Z,12.70
2023-04-19T11:14:40.846Z,7.47
2023-04-19T11:17:25.944Z,12.70
2023-04-19T11:20:02.191Z,13.20
2023-04-19T11:22:39.581Z,12.03
2023-04-19T11:25:20.894Z,9.87
2023-04-19T11:27:55.707Z,11.03
2023-04-19T11:30:29.513Z,8.77
2023-04-19T11:32:57.390Z,11.97
2023-04-19T11:35:27.318Z,8.73
2023-04-19T11:37:56.257Z,14.93
2023-04-19T11:40:26.127Z,11.63
2023-04-19T11:43:01.560Z,16.07
2023-04-19T11:45:34.780Z,10.37
2023-04-19T11:48:05.941Z,12.70
2023-04-19T11:50:45.710Z,11.70
2023-04-19T11:53:22.260Z,12.33
2023-04-19T11:55:51.597Z,9.00
2023-04-19T11:58:44.509Z,8.40
2023-04-19T12:01:16.843Z,6.53
2023-04-19T12:03:53.223Z,9.10
2023-04-19T12:06:29.204Z,19.93
2023-04-19T12:08:57.485Z,11.63
2023-04-19T12:11:42.693Z,10.20
2023-04-19T12:14:18.349Z,7.17
2023-04-19T12:16:46.122Z,8.70
2023-04-19T12:19:18.917Z,13.33
2023-04-19T12:21:46.946Z,10.30
2023-04-19T12:24:16.175Z,15.03
2023-04-19T12:26:57.322Z,12.40
2023-04-19T12:29:24.660Z,11.30
2023-04-19T12:31:51.553Z,8.53
2023-04-19T12:34:18.527Z,14.03
2023-04-19T12:36:45.668Z,10.10
2023-04-19T12:39:13.418Z,15.83
2023-04-19T12:41:40.463Z,8.00
2023-04-19T12:44:07.371Z,18.97
2023-04-19T12:46:34.408Z,14.43
2023-04-19T12:49:01.309Z,23.80
2023-04-19T12:51:28.242Z,7.73
2023-04-19T12:53:55.416Z,10.33
2023-04-19T12:56:22.310Z,12.53
2023-04-19T12:58:49.154Z,15.87
2023-04-19T13:01:16.167Z,12.00
2023-04-19T13:03:43.175Z,8.80
2023-04-19T13:06:13.444Z,26.83
2023-04-19T13:08:45.465Z,12.03
2023-04-19T13:11:14.739Z,8.10
2023-04-19T13:13:41.647Z,20.90
2023-04-19T13:16:08.625Z,7.17
2023-04-19T13:18:35.797Z,8.40
2023-04-19T13:21:02.813Z,16.43
2023-04-19T13:23:29.755Z,6.97
2023-04-19T13:25:56.655Z,9.43
2023-04-19T13:28:23.589Z,9.83
2023-04-19T13:30:50.523Z,12.80
2023-04-19T13:33:17.393Z,13.63
2023-04-19T13:35:45.066Z,13.87
2023-04-19T13:38:12.047Z,8.50
2023-04-19T13:40:38.978Z,9.10
2023-04-19T13:43:05.874Z,10.30
2023-04-19T13:45:32.771Z,13.20
2023-04-19T13:47:59.703Z,8.33
2023-04-19T13:50:26.620Z,8.70
2023-04-19T13:52:53.662Z,28.10
2023-04-19T13:55:20.747Z,13.17
2023-04-19T13:57:47.663Z,17.07
2023-04-19T14:00:15.204Z,11.67
2023-04-19T14:02:42.341Z,12.40
2023-04-19T14:05:09.737Z,10.07
2023-04-19T14:07:39.116Z,7.43
2023-04-19T14:10:07.270Z,16.93
2023-04-19T14:12:34.146Z,11.43
2023-04-19T14:15:01.293Z,11.90
2023-04-19T14:17:28.324Z,14.07
2023-04-19T14:19:56.351Z,16.53
2023-04-19T14:22:23.246Z,12.50
2023-04-19T14:24:50.318Z,8.13
2023-04-19T14:27:17.197Z,6.83
2023-04-19T14:29:44.097Z,15.37
2023-04-19T14:34:43.894Z,9.53
2023-04-19T14:37:10.853Z,14.07
2023-04-19T14:39:37.746Z,15.53
2023-04-19T14:42:04.859Z,11.73
2023-04-19T14:44:31.814Z,12.70
2023-04-19T14:46:58.690Z,14.63
2023-04-19T14:49:25.583Z,21.53
2023-04-19T14:51:52.885Z,12.83
2023-04-19T14:54:20.032Z,17.60
2023-04-19T14:56:47.007Z,15.33
2023-04-19T14:59:14.052Z,15.37
2023-04-19T15:01:41.102Z,11.63
2023-04-19T15:04:08.919Z,11.40
2023-04-19T15:06:36.476Z,12.37
2023-04-19T15:09:03.565Z,13.83
2023-04-19T15:11:30.613Z,13.27
2023-04-19T15:13:57.502Z,14.20
2023-04-19T15:16:24.570Z,14.40
2023-04-19T15:18:52.364Z,15.67
2023-04-19T15:21:22.917Z,11.40
2023-04-19T15:23:51.205Z,14.40
2023-04-19T15:26:18.127Z,18.43
2023-04-19T15:28:45.084Z,12.63
2023-04-19T15:31:12.049Z,20.93
2023-04-19T15:33:39.019Z,21.77
2023-04-19T15:36:06.245Z,16.90
2023-04-19T15:38:33.372Z,18.37
2023-04-19T15:41:01.398Z,15.50
2023-04-19T15:43:28.357Z,16.47
2023-04-19T15:45:55.512Z,16.90
2023-04-19T15:48:22.576Z,12.73
2023-04-19T15:50:49.673Z,16.83
2023-04-19T15:53:16.885Z,13.50
2023-04-19T15:55:44.252Z,17.73
2023-04-19T15:58:11.130Z,14.70
2023-04-19T16:00:38.012Z,16.33
2023-04-19T16:03:05.186Z,17.97
2023-04-19T16:05:32.139Z,22.23
2023-04-19T16:08:03.482Z,18.17
2023-04-19T16:10:30.647Z,22.67
2023-04-19T16:12:57.701Z,16.70
2023-04-19T16:15:24.709Z,19.47
2023-04-19T16:17:52.403Z,15.57
2023-04-19T16:20:20.567Z,13.10
2023-04-19T16:22:48.137Z,22.07
2023-04-19T16:25:16.104Z,16.90
2023-04-19T16:27:45.660Z,34.00
2023-04-19T16:30:14.031Z,22.17
2023-04-19T16:32:41.841Z,15.73
2023-04-19T16:35:10.085Z,14.03
2023-04-19T16:37:37.042Z,12.90
2023-04-19T16:40:08.690Z,14.70
2023-04-19T16:42:37.821Z,14.13
2023-04-19T16:45:06.272Z,15.50
2023-04-19T16:47:34.252Z,15.53
2023-04-19T16:50:02.422Z,15.37
2023-04-19T16:52:32.828Z,9.40
2023-04-19T16:55:00.068Z,12.60
2023-04-19T16:57:27.184Z,20.67
2023-04-19T16:59:54.112Z,20.80
2023-04-19T17:02:21.141Z,21.80
2023-04-19T17:04:48.274Z,23.60
2023-04-19T17:07:15.298Z,17.10
2023-04-19T17:09:42.181Z,18.53
2023-04-19T17:12:09.156Z,13.00
2023-04-19T17:14:36.100Z,19.73
2023-04-19T17:17:03.128Z,9.87
2023-04-19T17:19:30.150Z,13.60
2023-04-19T17:21:58.661Z,14.83
2023-04-19T17:24:25.547Z,16.03
2023-04-19T17:26:52.605Z,16.30
2023-04-19T17:29:19.637Z,15.93
2023-04-19T17:31:46.748Z,8.83
2023-04-19T17:34:13.719Z,12.70
2023-04-19T17:36:42.084Z,14.13
2023-04-19T17:39:09.667Z,23.63
2023-04-19T17:41:36.754Z,16.83
2023-04-19T17:44:03.670Z,11.20
2023-04-19T17:46:30.704Z,14.13
2023-04-19T17:48:57.600Z,24.73
2023-04-19T17:51:24.535Z,13.30
2023-04-19T17:53:51.744Z,13.10
2023-04-19T17:56:18.924Z,16.97
2023-04-19T17:58:49.369Z,13.50
2023-04-19T18:01:16.631Z,25.83
2023-04-19T18:03:44.076Z,18.17
2023-04-19T18:06:11.917Z,19.13
2023-04-19T18:08:38.863Z,16.77
2023-04-19T18:11:06.891Z,18.67
2023-04-19T18:13:33.800Z,13.83
2023-04-19T18:16:00.780Z,13.93
2023-04-19T18:18:27.695Z,16.13
2023-04-19T18:20:54.570Z,19.63
2023-04-19T18:23:21.621Z,19.73
2023-04-19T18:25:55.263Z,16.37
2023-04-19T18:28:22.403Z,26.23
2023-04-19T18:30:49.308Z,21.30
2023-04-19T18:33:16.205Z,17.97
2023-04-19T18:35:43.081Z,12.90
2023-04-19T18:38:10.121Z,13.53
2023-04-19T18:40:37.074Z,21.00
2023-04-19T18:43:03.982Z,16.37
2023-04-19T18:45:31.521Z,18.03
2023-04-19T18:48:01.283Z,17.50
2023-04-19T18:50:28.345Z,24.43
2023-04-19T18:52:55.294Z,17.30
2023-04-19T18:55:22.196Z,15.97
2023-04-19T18:57:49.095Z,15.13
2023-04-19T19:00:17.220Z,16.90
2023-04-19T19:02:44.993Z,17.53
2023-04-19T19:05:13.861Z,27.27
2023-04-19T19:07:41.958Z,20.60
2023-04-19T19:10:19.114Z,15.87
2023-04-19T19:12:49.497Z,11.33
2023-04-19T19:15:16.994Z,15.03
2023-04-19T19:17:48.557Z,11.83
2023-04-19T19:20:16.573Z,15.07
2023-04-19T19:22:43.594Z,14.90
2023-04-19T19:25:12.040Z,21.30
2023-04-19T19:27:39.080Z,22.23
2023-04-19T19:30:07.853Z,15.23
2023-04-19T19:32:34.907Z,15.90
2023-04-19T19:35:05.591Z,15.00
2023-04-19T19:37:36.903Z,13.10
2023-04-19T19:40:07.087Z,13.67
2023-04-19T19:42:39.291Z,23.07
2023-04-19T19:45:10.275Z,19.67
2023-04-19T19:47:43.374Z,12.63
2023-04-19T19:50:57.682Z,16.17
2023-04-19T19:53:01.449Z,15.57
2023-04-19T19:55:29.006Z,15.03
2023-04-19T20:02:56.827Z,15.23
2023-04-19T20:05:24.295Z,19.57
2023-04-19T20:10:21.413Z,15.97
2023-04-19T20:12:48.317Z,12.53
2023-04-19T20:15:15.384Z,17.17
2023-04-19T20:17:42.313Z,17.20
2023-04-19T20:20:11.114Z,15.57
2023-04-19T20:22:38.427Z,17.67
2023-04-19T20:25:05.861Z,17.90
2023-04-19T20:27:33.408Z,10.60
2023-04-19T20:30:00.855Z,15.40
2023-04-19T20:32:27.795Z,21.50
2023-04-19T20:34:54.772Z,21.87
2023-04-19T20:37:22.449Z,16.43
2023-04-19T20:39:49.324Z,18.90
2023-04-19T20:42:16.202Z,22.07
2023-04-19T20:44:43.076Z,21.80
2023-04-19T20:47:10.392Z,13.37
2023-04-19T20:49:37.268Z,13.27
2023-04-19T20:52:06.415Z,18.30
2023-04-19T20:54:34.160Z,30.23
2023-04-19T20:57:04.767Z,17.40
2023-04-19T20:59:31.848Z,15.50
2023-04-19T21:01:59.820Z,15.43
2023-04-19T21:04:26.952Z,26.50
2023-04-19T21:06:53.970Z,16.87
2023-04-19T21:09:21.147Z,23.13
2023-04-19T21:11:48.043Z,16.23
2023-04-19T21:14:14.936Z,16.13
2023-04-19T21:16:41.888Z,19.63
2023-04-19T21:19:08.770Z,15.40
2023-04-19T21:21:35.652Z,12.93
2023-04-19T21:24:02.589Z,18.13
2023-04-19T21:26:29.489Z,20.53
2023-04-19T21:28:56.354Z,23.97
2023-04-19T21:31:23.281Z,19.60
2023-04-19T21:33:50.189Z,15.20
2023-04-19T21:36:17.052Z,14.97
2023-04-19T21:38:43.965Z,20.83
2023-04-19T21:41:10.861Z,24.10
2023-04-19T21:43:37.736Z,20.20
2023-04-19T21:46:05.228Z,24.07
2023-04-19T21:48:32.454Z,34.83
2023-04-19T21:51:01.303Z,17.20
2023-04-19T21:53:28.176Z,19.03
2023-04-19T21:55:55.088Z,20.83
2023-04-19T21:58:21.954Z,21.50
2023-04-19T22:00:49.069Z,20.07
2023-04-19T22:03:16.190Z,18.63
2023-04-19T22:05:46.170Z,15.13
2023-04-19T22:08:13.282Z,16.20
2023-04-19T22:10:40.989Z,17.70
2023-04-19T22:13:08.675Z,15.57
2023-04-19T22:15:36.359Z,15.83
2023-04-19T22:18:03.949Z,18.60
2023-04-19T22:20:32.099Z,18.17
2023-04-19T22:22:58.999Z,16.93
2023-04-19T22:25:26.188Z,24.87
2023-04-19T22:27:53.059Z,23.93
2023-04-19T22:30:19.963Z,17.50
2023-04-19T22:32:46.922Z,24.30
2023-04-19T22:35:13.902Z,15.73
2023-04-19T22:37:40.819Z,22.50
2023-04-19T22:40:09.300Z,23.33
2023-04-19T22:42:37.065Z,22.50
2023-04-19T22:45:04.386Z,19.97
2023-04-19T22:47:32.950Z,19.53
2023-04-19T22:49:59.953Z,19.87
2023-04-19T22:52:27.921Z,27.00
2023-04-19T22:54:54.875Z,19.07
2023-04-19T22:57:21.755Z,20.70
2023-04-19T22:59:48.856Z,23.40
2023-04-19T23:02:15.793Z,20.33
2023-04-19T23:04:44.525Z,26.20
2023-04-19T23:07:11.801Z,15.80
2023-04-19T23:09:39.323Z,19.13
2023-04-19T23:12:06.994Z,24.00
2023-04-19T23:14:33.933Z,14.57
2023-04-19T23:17:02.657Z,15.43
2023-04-19T23:19:30.356Z,15.87
2023-04-19T23:21:57.257Z,16.07
2023-04-19T23:24:24.509Z,15.20
2023-04-19T23:26:51.395Z,18.70
2023-04-19T23:29:18.541Z,20.83
2023-04-19T23:31:45.766Z,21.57
2023-04-19T23:34:13.944Z,16.17
2023-04-19T23:36:40.895Z,16.83
2023-04-19T23:39:07.799Z,20.50
2023-04-19T23:41:34.673Z,16.63
2023-04-19T23:44:01.534Z,18.63
2023-04-19T23:46:28.485Z,15.93
2023-04-19T23:48:55.579Z,16.87
2023-04-19T23:51:22.458Z,17.90
2023-04-19T23:53:49.348Z,20.00
2023-04-19T23:56:16.265Z,14.83
2023-04-19T23:58:43.149Z,22.63
